PWSweather.com
Personal Weather Stations
Station Observations
BNUMANCIA
BarcelonaES 08029

BarcelonaES 08029

Lat: 41.3855863, Lon: 2.1367624

Elevation: 46

Station Type: WMR180

High Low Average
Temperature 57.2°F14.0°F 47.5°F8.6°F 52.3°F11.3°F
Dew Point 39.5°F4.2°F 35.0°F1.7°F 37.3°F2.9°F
Winds 12.3 mph NNW19.8 mph NNW Calm Calm 4.5 mph 7.2 mph
Wind Gusts 13.2 mph21.2 mph -- 6.8 mph10.9 mph
Humidity 63% 48% 57%
Pressure 30.44 in1030.80 in 30.36 in1028.10 in -
Precipitation 0.00 in0.00 in - -
Hour Temp Dew Point Humidity Winds Wind Gusts Pressure Precip Precip Rate Daily Precip Total
12:00 AM 53.4°F11.9°C 39.5°F4.2°C 59% 2.5 mph NNE4.0 kmh NNE 4.9 mph7.9 kmh 30.39 in1029.1 mb 0.00 in0.0 mm 0.00 in/hr0.0 mm/hr 0.00 in0.0 mm
12:04 AM 53.4°F11.9°C 39.5°F4.2°C 59% Calm Calm 6.0 mph9.7 kmh 30.39 in1029.1 mb 0.00 in0.0 mm 0.00 in/hr0.0 mm/hr 0.00 in0.0 mm
12:09 AM 53.4°F11.9°C 39.5°F4.2°C 59% 5.4 mph NE8.7 kmh NE 5.4 mph8.7 kmh 30.39 in1029.1 mb 0.00 in0.0 mm 0.00 in/hr0.0 mm/hr 0.00 in0.0 mm
12:14 AM 53.2°F11.8°C 39.3°F4.1°C 59% 2.7 mph NNE4.3 kmh NNE 5.4 mph8.7 kmh 30.39 in1029.1 mb 0.00 in0.0 mm 0.00 in/hr0.0 mm/hr 0.00 in0.0 mm
12:19 AM 53.2°F11.8°C 39.3°F4.1°C 59% 4.0 mph NE6.4 kmh NE 4.0 mph6.4 kmh 30.39 in1029.1 mb 0.00 in0.0 mm 0.00 in/hr0.0 mm/hr 0.00 in0.0 mm
12:24 AM 53.1°F11.7°C 39.1°F3.9°C 59% 7.6 mph ENE12.2 kmh ENE 10.1 mph16.3 kmh 30.39 in1029.1 mb 0.00 in0.0 mm 0.00 in/hr0.0 mm/hr 0.00 in0.0 mm
12:29 AM 52.9°F11.6°C 39.0°F3.9°C 59% 7.6 mph ENE12.2 kmh ENE 7.6 mph12.2 kmh 30.39 in1029.1 mb 0.00 in0.0 mm 0.00 in/hr0.0 mm/hr 0.00 in0.0 mm
12:33 AM 52.9°F11.6°C 39.0°F3.9°C 59% 6.3 mph E10.1 kmh E 6.3 mph10.1 kmh 30.39 in1029.1 mb 0.00 in0.0 mm 0.00 in/hr0.0 mm/hr 0.00 in0.0 mm
12:39 AM 52.7°F11.5°C 38.8°F3.8°C 59% 5.4 mph NE8.7 kmh NE 7.4 mph11.9 kmh 30.39 in1029.1 mb 0.00 in0.0 mm 0.00 in/hr0.0 mm/hr 0.00 in0.0 mm
12:43 AM 52.7°F11.5°C 38.8°F3.8°C 59% 1.6 mph NE2.6 kmh NE 3.1 mph5.0 kmh 30.39 in1029.1 mb 0.00 in0.0 mm 0.00 in/hr0.0 mm/hr 0.00 in0.0 mm
12:50 AM 52.7°F11.5°C 38.8°F3.8°C 59% 4.9 mph NE7.9 kmh NE 4.9 mph7.9 kmh 30.39 in1029.1 mb 0.00 in0.0 mm 0.00 in/hr0.0 mm/hr 0.00 in0.0 mm
12:55 AM 52.7°F11.5°C 38.8°F3.8°C 59% 8.5 mph NE13.7 kmh NE 8.5 mph13.7 kmh 30.39 in1029.1 mb 0.00 in0.0 mm 0.00 in/hr0.0 mm/hr 0.00 in0.0 mm
01:00 AM 52.7°F11.5°C 39.2°F4.0°C 60% 2.7 mph NE4.3 kmh NE 8.5 mph13.7 kmh 30.39 in1029.1 mb 0.00 in0.0 mm 0.00 in/hr0.0 mm/hr 0.00 in0.0 mm
01:05 AM 52.7°F11.5°C 39.2°F4.0°C 60% 3.4 mph NE5.5 kmh NE 6.3 mph10.1 kmh 30.39 in1029.1 mb 0.00 in0.0 mm 0.00 in/hr0.0 mm/hr 0.00 in0.0 mm
01:09 AM 52.7°F11.5°C 39.2°F4.0°C 60% 5.6 mph ENE9.0 kmh ENE 5.6 mph9.0 kmh 30.39 in1029.1 mb 0.00 in0.0 mm 0.00 in/hr0.0 mm/hr 0.00 in0.0 mm
01:14 AM 52.9°F11.6°C 39.0°F3.9°C 59% 2.9 mph NNW4.7 kmh NNW 6.5 mph10.5 kmh 30.39 in1029.1 mb 0.00 in0.0 mm 0.00 in/hr0.0 mm/hr 0.00 in0.0 mm
01:19 AM 52.7°F11.5°C 38.8°F3.8°C 59% 3.8 mph NNE6.1 kmh NNE 7.2 mph11.6 kmh 30.39 in1029.1 mb 0.00 in0.0 mm 0.00 in/hr0.0 mm/hr 0.00 in0.0 mm
01:24 AM 52.5°F11.4°C 39.1°F3.9°C 60% 5.4 mph NE8.7 kmh NE 7.6 mph12.2 kmh 30.39 in1029.1 mb 0.00 in0.0 mm 0.00 in/hr0.0 mm/hr 0.00 in0.0 mm
01:29 AM 52.2°F11.2°C 38.7°F3.7°C 60% 10.1 mph NE16.3 kmh NE 10.1 mph16.3 kmh 30.39 in1029.1 mb 0.00 in0.0 mm 0.00 in/hr0.0 mm/hr 0.00 in0.0 mm
01:34 AM 52.0°F11.1°C 38.5°F3.6°C 60% 3.4 mph NE5.5 kmh NE 10.1 mph16.3 kmh 30.39 in1029.1 mb 0.00 in0.0 mm 0.00 in/hr0.0 mm/hr 0.00 in0.0 mm
01:39 AM 51.8°F11.0°C 38.4°F3.6°C 60% 5.8 mph ENE9.3 kmh ENE 7.8 mph12.6 kmh 30.39 in1029.1 mb 0.00 in0.0 mm 0.00 in/hr0.0 mm/hr 0.00 in0.0 mm
01:44 AM 51.8°F11.0°C 38.4°F3.6°C 60% 3.6 mph NNW5.8 kmh NNW 9.6 mph15.4 kmh 30.36 in1028.1 mb 0.00 in0.0 mm 0.00 in/hr0.0 mm/hr 0.00 in0.0 mm
01:50 AM 51.6°F10.9°C 38.6°F3.7°C 61% 3.4 mph NE5.5 kmh NE 12.3 mph19.8 kmh 30.36 in1028.1 mb 0.00 in0.0 mm 0.00 in/hr0.0 mm/hr 0.00 in0.0 mm
01:55 AM 51.4°F10.8°C 38.5°F3.6°C 61% 2.2 mph NNE3.5 kmh NNE 2.2 mph3.5 kmh 30.36 in1028.1 mb 0.00 in0.0 mm 0.00 in/hr0.0 mm/hr 0.00 in0.0 mm
02:00 AM 51.4°F10.8°C 38.5°F3.6°C 61% 3.1 mph E5.0 kmh E 5.8 mph9.3 kmh 30.36 in1028.1 mb 0.00 in0.0 mm 0.00 in/hr0.0 mm/hr 0.00 in0.0 mm
02:05 AM 51.3°F10.7°C 38.3°F3.5°C 61% 7.6 mph NE12.2 kmh NE 7.6 mph12.2 kmh 30.36 in1028.1 mb 0.00 in0.0 mm 0.00 in/hr0.0 mm/hr 0.00 in0.0 mm
02:09 AM 51.3°F10.7°C 38.7°F3.7°C 62% 2.7 mph NE4.3 kmh NE 7.6 mph12.2 kmh 30.36 in1028.1 mb 0.00 in0.0 mm 0.00 in/hr0.0 mm/hr 0.00 in0.0 mm
02:14 AM 51.1°F10.6°C 38.5°F3.6°C 62% 3.1 mph NNE5.0 kmh NNE 7.6 mph12.2 kmh 30.36 in1028.1 mb 0.00 in0.0 mm 0.00 in/hr0.0 mm/hr 0.00 in0.0 mm
02:19 AM 51.1°F10.6°C 38.5°F3.6°C 62% 6.0 mph NE9.7 kmh NE 7.4 mph11.9 kmh 30.36 in1028.1 mb 0.00 in0.0 mm 0.00 in/hr0.0 mm/hr 0.00 in0.0 mm
02:24 AM 50.9°F10.5°C 38.4°F3.6°C 62% 3.6 mph NNE5.8 kmh NNE 8.5 mph13.7 kmh 30.36 in1028.1 mb 0.00 in0.0 mm 0.00 in/hr0.0 mm/hr 0.00 in0.0 mm
02:29 AM 50.9°F10.5°C 38.4°F3.6°C 62% 8.1 mph NE13.0 kmh NE 8.1 mph13.0 kmh 30.39 in1029.1 mb 0.00 in0.0 mm 0.00 in/hr0.0 mm/hr 0.00 in0.0 mm
02:34 AM 50.9°F10.5°C 38.4°F3.6°C 62% 10.3 mph NNE16.6 kmh NNE 10.3 mph16.6 kmh 30.39 in1029.1 mb 0.00 in0.0 mm 0.00 in/hr0.0 mm/hr 0.00 in0.0 mm
02:39 AM 50.9°F10.5°C 38.8°F3.8°C 63% 3.4 mph NNW5.5 kmh NNW 7.4 mph11.9 kmh 30.39 in1029.1 mb 0.00 in0.0 mm 0.00 in/hr0.0 mm/hr 0.00 in0.0 mm
02:44 AM 50.9°F10.5°C 38.8°F3.8°C 63% 4.0 mph NNW6.4 kmh NNW 11.2 mph18.0 kmh 30.39 in1029.1 mb 0.00 in0.0 mm 0.00 in/hr0.0 mm/hr 0.00 in0.0 mm
02:49 AM 50.9°F10.5°C 38.4°F3.6°C 62% 6.0 mph NNE9.7 kmh NNE 8.7 mph14.0 kmh 30.39 in1029.1 mb 0.00 in0.0 mm 0.00 in/hr0.0 mm/hr 0.00 in0.0 mm
02:55 AM 51.3°F10.7°C 38.7°F3.7°C 62% 7.8 mph NE12.6 kmh NE 7.8 mph12.6 kmh 30.39 in1029.1 mb 0.00 in0.0 mm 0.00 in/hr0.0 mm/hr 0.00 in0.0 mm
03:00 AM 51.4°F10.8°C 38.9°F3.8°C 62% 4.5 mph NNW7.2 kmh NNW 7.8 mph12.6 kmh 30.36 in1028.1 mb 0.00 in0.0 mm 0.00 in/hr0.0 mm/hr 0.00 in0.0 mm
03:05 AM 51.3°F10.7°C 38.3°F3.5°C 61% 4.3 mph NNE6.9 kmh NNE 12.1 mph19.5 kmh 30.36 in1028.1 mb 0.00 in0.0 mm 0.00 in/hr0.0 mm/hr 0.00 in0.0 mm
03:09 AM 51.3°F10.7°C 38.3°F3.5°C 61% 5.8 mph ENE9.3 kmh ENE 7.4 mph11.9 kmh 30.36 in1028.1 mb 0.00 in0.0 mm 0.00 in/hr0.0 mm/hr 0.00 in0.0 mm
03:14 AM 51.1°F10.6°C 38.1°F3.4°C 61% 6.5 mph SE10.5 kmh SE 7.4 mph11.9 kmh 30.39 in1029.1 mb 0.00 in0.0 mm 0.00 in/hr0.0 mm/hr 0.00 in0.0 mm
03:19 AM 51.1°F10.6°C 38.1°F3.4°C 61% 2.9 mph NE4.7 kmh NE 8.5 mph13.7 kmh 30.39 in1029.1 mb 0.00 in0.0 mm 0.00 in/hr0.0 mm/hr 0.00 in0.0 mm
03:24 AM 51.1°F10.6°C 38.1°F3.4°C 61% 7.8 mph E12.6 kmh E 7.8 mph12.6 kmh 30.39 in1029.1 mb 0.00 in0.0 mm 0.00 in/hr0.0 mm/hr 0.00 in0.0 mm
03:29 AM 51.1°F10.6°C 38.1°F3.4°C 61% 7.2 mph NE11.6 kmh NE 7.6 mph12.2 kmh 30.36 in1028.1 mb 0.00 in0.0 mm 0.00 in/hr0.0 mm/hr 0.00 in0.0 mm
03:34 AM 50.9°F10.5°C 38.0°F3.3°C 61% 6.3 mph NE10.1 kmh NE 9.8 mph15.8 kmh 30.36 in1028.1 mb 0.00 in0.0 mm 0.00 in/hr0.0 mm/hr 0.00 in0.0 mm
03:39 AM 50.9°F10.5°C 38.0°F3.3°C 61% 3.8 mph ENE6.1 kmh ENE 12.1 mph19.5 kmh 30.36 in1028.1 mb 0.00 in0.0 mm 0.00 in/hr0.0 mm/hr 0.00 in0.0 mm
03:44 AM 50.9°F10.5°C 38.0°F3.3°C 61% 7.6 mph 12.2 kmh 9.8 mph15.8 kmh 30.39 in1029.1 mb 0.00 in0.0 mm 0.00 in/hr0.0 mm/hr 0.00 in0.0 mm
03:49 AM 50.7°F10.4°C 37.8°F3.2°C 61% 7.8 mph NE12.6 kmh NE 9.8 mph15.8 kmh 30.39 in1029.1 mb 0.00 in0.0 mm 0.00 in/hr0.0 mm/hr 0.00 in0.0 mm
03:55 AM 50.7°F10.4°C 37.8°F3.2°C 61% 8.1 mph NNE13.0 kmh NNE 10.5 mph16.9 kmh 30.39 in1029.1 mb 0.00 in0.0 mm 0.00 in/hr0.0 mm/hr 0.00 in0.0 mm
04:00 AM 50.7°F10.4°C 37.8°F3.2°C 61% 3.6 mph 5.8 kmh 11.2 mph18.0 kmh 30.36 in1028.1 mb 0.00 in0.0 mm 0.00 in/hr0.0 mm/hr 0.00 in0.0 mm
04:05 AM 50.7°F10.4°C 37.8°F3.2°C 61% 7.4 mph ENE11.9 kmh ENE 7.4 mph11.9 kmh 30.36 in1028.1 mb 0.00 in0.0 mm 0.00 in/hr0.0 mm/hr 0.00 in0.0 mm
04:09 AM 50.9°F10.5°C 38.0°F3.3°C 61% 4.3 mph NNE6.9 kmh NNE 7.4 mph11.9 kmh 30.36 in1028.1 mb 0.00 in0.0 mm 0.00 in/hr0.0 mm/hr 0.00 in0.0 mm
04:13 AM 50.9°F10.5°C 38.0°F3.3°C 61% 2.2 mph ENE3.5 kmh ENE 4.0 mph6.4 kmh 30.36 in1028.1 mb 0.00 in0.0 mm 0.00 in/hr0.0 mm/hr 0.00 in0.0 mm
04:19 AM 50.9°F10.5°C 37.5°F3.1°C 60% 2.7 mph NE4.3 kmh NE 6.0 mph9.7 kmh 30.36 in1028.1 mb 0.00 in0.0 mm 0.00 in/hr0.0 mm/hr 0.00 in0.0 mm
04:24 AM 51.1°F10.6°C 37.7°F3.2°C 60% 1.6 mph NE2.6 kmh NE 6.0 mph9.7 kmh 30.36 in1028.1 mb 0.00 in0.0 mm 0.00 in/hr0.0 mm/hr 0.00 in0.0 mm
04:29 AM 51.3°F10.7°C 37.9°F3.3°C 60% 5.4 mph NE8.7 kmh NE 5.4 mph8.7 kmh 30.36 in1028.1 mb 0.00 in0.0 mm 0.00 in/hr0.0 mm/hr 0.00 in0.0 mm
04:34 AM 51.3°F10.7°C 37.4°F3.0°C 59% 5.6 mph NE9.0 kmh NE 7.4 mph11.9 kmh 30.36 in1028.1 mb 0.00 in0.0 mm 0.00 in/hr0.0 mm/hr 0.00 in0.0 mm
04:39 AM 51.1°F10.6°C 37.3°F2.9°C 59% 7.4 mph NE11.9 kmh NE 8.1 mph13.0 kmh 30.36 in1028.1 mb 0.00 in0.0 mm 0.00 in/hr0.0 mm/hr 0.00 in0.0 mm
04:44 AM 50.7°F10.4°C 36.9°F2.7°C 59% 7.6 mph NE12.2 kmh NE 7.6 mph12.2 kmh 30.36 in1028.1 mb 0.00 in0.0 mm 0.00 in/hr0.0 mm/hr 0.00 in0.0 mm
04:49 AM 50.5°F10.3°C 37.2°F2.9°C 60% 10.1 mph NNE16.3 kmh NNE 10.1 mph16.3 kmh 30.36 in1028.1 mb 0.00 in0.0 mm 0.00 in/hr0.0 mm/hr 0.00 in0.0 mm
04:55 AM 50.4°F10.2°C 37.0°F2.8°C 60% 5.6 mph NE9.0 kmh NE 11.2 mph18.0 kmh 30.36 in1028.1 mb 0.00 in0.0 mm 0.00 in/hr0.0 mm/hr 0.00 in0.0 mm
05:00 AM 50.2°F10.1°C 36.9°F2.7°C 60% 6.3 mph 10.1 kmh 7.4 mph11.9 kmh 30.36 in1028.1 mb 0.00 in0.0 mm 0.00 in/hr0.0 mm/hr 0.00 in0.0 mm
05:05 AM 50.2°F10.1°C 36.9°F2.7°C 60% 5.6 mph NE9.0 kmh NE 7.6 mph12.2 kmh 30.36 in1028.1 mb 0.00 in0.0 mm 0.00 in/hr0.0 mm/hr 0.00 in0.0 mm
05:09 AM 50.0°F10.0°C 36.7°F2.6°C 60% 7.6 mph ENE12.2 kmh ENE 9.8 mph15.8 kmh 30.36 in1028.1 mb 0.00 in0.0 mm 0.00 in/hr0.0 mm/hr 0.00 in0.0 mm
05:14 AM 49.8°F9.9°C 36.9°F2.7°C 61% 7.4 mph NNE11.9 kmh NNE 11.0 mph17.7 kmh 30.36 in1028.1 mb 0.00 in0.0 mm 0.00 in/hr0.0 mm/hr 0.00 in0.0 mm
05:19 AM 49.6°F9.8°C 36.8°F2.7°C 61% 5.8 mph 9.3 kmh 11.0 mph17.7 kmh 30.36 in1028.1 mb 0.00 in0.0 mm 0.00 in/hr0.0 mm/hr 0.00 in0.0 mm
05:24 AM 49.6°F9.8°C 36.8°F2.7°C 61% 4.9 mph NE7.9 kmh NE 13.2 mph21.2 kmh 30.36 in1028.1 mb 0.00 in0.0 mm 0.00 in/hr0.0 mm/hr 0.00 in0.0 mm
05:29 AM 49.6°F9.8°C 36.8°F2.7°C 61% 8.7 mph NNE14.0 kmh NNE 11.0 mph17.7 kmh 30.36 in1028.1 mb 0.00 in0.0 mm 0.00 in/hr0.0 mm/hr 0.00 in0.0 mm
05:34 AM 49.5°F9.7°C 36.6°F2.6°C 61% 8.7 mph NE14.0 kmh NE 8.7 mph14.0 kmh 30.36 in1028.1 mb 0.00 in0.0 mm 0.00 in/hr0.0 mm/hr 0.00 in0.0 mm
05:39 AM 49.3°F9.6°C 36.4°F2.4°C 61% 3.6 mph NE5.8 kmh NE 8.7 mph14.0 kmh 30.36 in1028.1 mb 0.00 in0.0 mm 0.00 in/hr0.0 mm/hr 0.00 in0.0 mm
05:44 AM 49.1°F9.5°C 36.7°F2.6°C 62% 4.0 mph NE6.4 kmh NE 8.7 mph14.0 kmh 30.36 in1028.1 mb 0.00 in0.0 mm 0.00 in/hr0.0 mm/hr 0.00 in0.0 mm
05:49 AM 49.1°F9.5°C 36.7°F2.6°C 62% 9.4 mph NE15.1 kmh NE 9.4 mph15.1 kmh 30.36 in1028.1 mb 0.00 in0.0 mm 0.00 in/hr0.0 mm/hr 0.00 in0.0 mm
05:54 AM 48.9°F9.4°C 36.5°F2.5°C 62% 6.5 mph NE10.5 kmh NE 8.1 mph13.0 kmh 30.36 in1028.1 mb 0.00 in0.0 mm 0.00 in/hr0.0 mm/hr 0.00 in0.0 mm
06:00 AM 48.7°F9.3°C 36.3°F2.4°C 62% 9.6 mph NNE15.4 kmh NNE 9.6 mph15.4 kmh 30.36 in1028.1 mb 0.00 in0.0 mm 0.00 in/hr0.0 mm/hr 0.00 in0.0 mm
06:05 AM 48.7°F9.3°C 36.3°F2.4°C 62% 5.4 mph NNE8.7 kmh NNE 9.6 mph15.4 kmh 30.36 in1028.1 mb 0.00 in0.0 mm 0.00 in/hr0.0 mm/hr 0.00 in0.0 mm
06:08 AM 48.7°F9.3°C 36.3°F2.4°C 62% 5.8 mph 9.3 kmh 5.8 mph9.3 kmh 30.36 in1028.1 mb 0.00 in0.0 mm 0.00 in/hr0.0 mm/hr 0.00 in0.0 mm
06:14 AM 48.4°F9.1°C 36.0°F2.2°C 62% 8.5 mph NE13.7 kmh NE 8.5 mph13.7 kmh 30.36 in1028.1 mb 0.00 in0.0 mm 0.00 in/hr0.0 mm/hr 0.00 in0.0 mm
06:19 AM 48.4°F9.1°C 36.0°F2.2°C 62% 7.4 mph ENE11.9 kmh ENE 8.5 mph13.7 kmh 30.36 in1028.1 mb 0.00 in0.0 mm 0.00 in/hr0.0 mm/hr 0.00 in0.0 mm
06:24 AM 48.4°F9.1°C 36.0°F2.2°C 62% 6.5 mph NNE10.5 kmh NNE 7.8 mph12.6 kmh 30.36 in1028.1 mb 0.00 in0.0 mm 0.00 in/hr0.0 mm/hr 0.00 in0.0 mm
06:29 AM 48.4°F9.1°C 36.0°F2.2°C 62% 6.3 mph NNE10.1 kmh NNE 10.7 mph17.2 kmh 30.36 in1028.1 mb 0.00 in0.0 mm 0.00 in/hr0.0 mm/hr 0.00 in0.0 mm
06:34 AM 48.2°F9.0°C 35.8°F2.1°C 62% 9.0 mph NE14.5 kmh NE 9.0 mph14.5 kmh 30.36 in1028.1 mb 0.00 in0.0 mm 0.00 in/hr0.0 mm/hr 0.00 in0.0 mm
06:39 AM 48.2°F9.0°C 35.8°F2.1°C 62% 3.4 mph NE5.5 kmh NE 10.1 mph16.3 kmh 30.36 in1028.1 mb 0.00 in0.0 mm 0.00 in/hr0.0 mm/hr 0.00 in0.0 mm
06:44 AM 48.2°F9.0°C 35.8°F2.1°C 62% 9.0 mph ENE14.5 kmh ENE 9.2 mph14.8 kmh 30.36 in1028.1 mb 0.00 in0.0 mm 0.00 in/hr0.0 mm/hr 0.00 in0.0 mm
06:49 AM 48.0°F8.9°C 36.0°F2.2°C 63% 6.0 mph NNE9.7 kmh NNE 7.4 mph11.9 kmh 30.36 in1028.1 mb 0.00 in0.0 mm 0.00 in/hr0.0 mm/hr 0.00 in0.0 mm
06:55 AM 48.0°F8.9°C 36.0°F2.2°C 63% 11.9 mph NE19.2 kmh NE 11.9 mph19.2 kmh 30.36 in1028.1 mb 0.00 in0.0 mm 0.00 in/hr0.0 mm/hr 0.00 in0.0 mm
07:00 AM 48.4°F9.1°C 36.0°F2.2°C 62% 8.5 mph 13.7 kmh 13.0 mph20.9 kmh 30.36 in1028.1 mb 0.00 in0.0 mm 0.00 in/hr0.0 mm/hr 0.00 in0.0 mm
07:05 AM 48.4°F9.1°C 35.6°F2.0°C 61% 7.8 mph NE12.6 kmh NE 8.5 mph13.7 kmh 30.36 in1028.1 mb 0.00 in0.0 mm 0.00 in/hr0.0 mm/hr 0.00 in0.0 mm
07:08 AM 48.4°F9.1°C 35.6°F2.0°C 61% 3.4 mph NNE5.5 kmh NNE 7.8 mph12.6 kmh 30.36 in1028.1 mb 0.00 in0.0 mm 0.00 in/hr0.0 mm/hr 0.00 in0.0 mm
07:14 AM 48.2°F9.0°C 35.4°F1.9°C 61% 10.7 mph NE17.2 kmh NE 12.5 mph20.1 kmh 30.36 in1028.1 mb 0.00 in0.0 mm 0.00 in/hr0.0 mm/hr 0.00 in0.0 mm
07:19 AM 48.2°F9.0°C 35.4°F1.9°C 61% 2.9 mph NNE4.7 kmh NNE 7.8 mph12.6 kmh 30.36 in1028.1 mb 0.00 in0.0 mm 0.00 in/hr0.0 mm/hr 0.00 in0.0 mm
07:24 AM 48.2°F9.0°C 35.4°F1.9°C 61% 2.7 mph 4.3 kmh 7.4 mph11.9 kmh 30.36 in1028.1 mb 0.00 in0.0 mm 0.00 in/hr0.0 mm/hr 0.00 in0.0 mm
07:29 AM 48.2°F9.0°C 35.4°F1.9°C 61% 1.6 mph NE2.6 kmh NE 8.1 mph13.0 kmh 30.39 in1029.1 mb 0.00 in0.0 mm 0.00 in/hr0.0 mm/hr 0.00 in0.0 mm
07:34 AM 48.2°F9.0°C 35.4°F1.9°C 61% 2.9 mph NNW4.7 kmh NNW 6.3 mph10.1 kmh 30.39 in1029.1 mb 0.00 in0.0 mm 0.00 in/hr0.0 mm/hr 0.00 in0.0 mm
07:39 AM 47.8°F8.8°C 35.5°F1.9°C 62% 2.9 mph NE4.7 kmh NE 3.1 mph5.0 kmh 30.39 in1029.1 mb 0.00 in0.0 mm 0.00 in/hr0.0 mm/hr 0.00 in0.0 mm
07:44 AM 47.7°F8.7°C 35.3°F1.8°C 62% 6.0 mph NE9.7 kmh NE 7.2 mph11.6 kmh 30.39 in1029.1 mb 0.00 in0.0 mm 0.00 in/hr0.0 mm/hr 0.00 in0.0 mm
07:49 AM 47.7°F8.7°C 35.3°F1.8°C 62% 10.3 mph NE16.6 kmh NE 10.3 mph16.6 kmh 30.39 in1029.1 mb 0.00 in0.0 mm 0.00 in/hr0.0 mm/hr 0.00 in0.0 mm
07:55 AM 47.7°F8.7°C 35.3°F1.8°C 62% 3.8 mph NNE6.1 kmh NNE 8.1 mph13.0 kmh 30.39 in1029.1 mb 0.00 in0.0 mm 0.00 in/hr0.0 mm/hr 0.00 in0.0 mm
08:00 AM 47.8°F8.8°C 35.5°F1.9°C 62% 3.8 mph NE6.1 kmh NE 3.8 mph6.1 kmh 30.39 in1029.1 mb 0.00 in0.0 mm 0.00 in/hr0.0 mm/hr 0.00 in0.0 mm
08:05 AM 47.8°F8.8°C 35.5°F1.9°C 62% 5.8 mph NNE9.3 kmh NNE 5.8 mph9.3 kmh 30.39 in1029.1 mb 0.00 in0.0 mm 0.00 in/hr0.0 mm/hr 0.00 in0.0 mm
08:10 AM 47.8°F8.8°C 35.5°F1.9°C 62% 1.3 mph NNE2.1 kmh NNE 5.8 mph9.3 kmh 30.39 in1029.1 mb 0.00 in0.0 mm 0.00 in/hr0.0 mm/hr 0.00 in0.0 mm
08:14 AM 47.8°F8.8°C 35.5°F1.9°C 62% 6.3 mph NE10.1 kmh NE 8.7 mph14.0 kmh 30.39 in1029.1 mb 0.00 in0.0 mm 0.00 in/hr0.0 mm/hr 0.00 in0.0 mm
08:19 AM 47.7°F8.7°C 35.7°F2.1°C 63% 11.9 mph E19.2 kmh E 11.9 mph19.2 kmh 30.39 in1029.1 mb 0.00 in0.0 mm 0.00 in/hr0.0 mm/hr 0.00 in0.0 mm
08:24 AM 47.7°F8.7°C 35.7°F2.1°C 63% 5.6 mph 9.0 kmh 11.0 mph17.7 kmh 30.39 in1029.1 mb 0.00 in0.0 mm 0.00 in/hr0.0 mm/hr 0.00 in0.0 mm
08:29 AM 47.5°F8.6°C 35.5°F1.9°C 63% 7.4 mph E11.9 kmh E 7.4 mph11.9 kmh 30.39 in1029.1 mb 0.00 in0.0 mm 0.00 in/hr0.0 mm/hr 0.00 in0.0 mm
08:34 AM 47.5°F8.6°C 35.5°F1.9°C 63% 1.3 mph ENE2.1 kmh ENE 7.4 mph11.9 kmh 30.39 in1029.1 mb 0.00 in0.0 mm 0.00 in/hr0.0 mm/hr 0.00 in0.0 mm
08:39 AM 47.5°F8.6°C 35.5°F1.9°C 63% 10.1 mph NNE16.3 kmh NNE 10.1 mph16.3 kmh 30.39 in1029.1 mb 0.00 in0.0 mm 0.00 in/hr0.0 mm/hr 0.00 in0.0 mm
08:44 AM 47.5°F8.6°C 35.1°F1.7°C 62% 7.6 mph E12.2 kmh E 7.6 mph12.2 kmh 30.39 in1029.1 mb 0.00 in0.0 mm 0.00 in/hr0.0 mm/hr 0.00 in0.0 mm
08:49 AM 47.7°F8.7°C 35.3°F1.8°C 62% 8.1 mph NE13.0 kmh NE 9.4 mph15.1 kmh 30.39 in1029.1 mb 0.00 in0.0 mm 0.00 in/hr0.0 mm/hr 0.00 in0.0 mm
08:54 AM 47.7°F8.7°C 35.3°F1.8°C 62% 2.0 mph NE3.2 kmh NE 13.2 mph21.2 kmh 30.39 in1029.1 mb 0.00 in0.0 mm 0.00 in/hr0.0 mm/hr 0.00 in0.0 mm
08:59 AM 47.8°F8.8°C 35.5°F1.9°C 62% 2.7 mph SW4.3 kmh SW 5.6 mph9.0 kmh 30.39 in1029.1 mb 0.00 in0.0 mm 0.00 in/hr0.0 mm/hr 0.00 in0.0 mm
09:05 AM 48.0°F8.9°C 35.6°F2.0°C 62% Calm Calm 5.6 mph9.0 kmh 30.39 in1029.1 mb 0.00 in0.0 mm 0.00 in/hr0.0 mm/hr 0.00 in0.0 mm
09:10 AM 48.0°F8.9°C 35.6°F2.0°C 62% 3.4 mph NE5.5 kmh NE 5.8 mph9.3 kmh 30.39 in1029.1 mb 0.00 in0.0 mm 0.00 in/hr0.0 mm/hr 0.00 in0.0 mm
09:15 AM 48.0°F8.9°C 35.6°F2.0°C 62% 3.4 mph E5.5 kmh E 6.3 mph10.1 kmh 30.39 in1029.1 mb 0.00 in0.0 mm 0.00 in/hr0.0 mm/hr 0.00 in0.0 mm
09:19 AM 47.8°F8.8°C 35.1°F1.7°C 61% 6.5 mph ENE10.5 kmh ENE 10.3 mph16.6 kmh 30.39 in1029.1 mb 0.00 in0.0 mm 0.00 in/hr0.0 mm/hr 0.00 in0.0 mm
09:24 AM 47.8°F8.8°C 35.1°F1.7°C 61% 3.1 mph NE5.0 kmh NE 8.7 mph14.0 kmh 30.39 in1029.1 mb 0.00 in0.0 mm 0.00 in/hr0.0 mm/hr 0.00 in0.0 mm
09:29 AM 47.8°F8.8°C 35.1°F1.7°C 61% 6.0 mph NE9.7 kmh NE 6.0 mph9.7 kmh 30.39 in1029.1 mb 0.00 in0.0 mm 0.00 in/hr0.0 mm/hr 0.00 in0.0 mm
09:34 AM 48.0°F8.9°C 35.2°F1.8°C 61% 5.8 mph NE9.3 kmh NE 8.7 mph14.0 kmh 30.39 in1029.1 mb 0.00 in0.0 mm 0.00 in/hr0.0 mm/hr 0.00 in0.0 mm
09:39 AM 48.0°F8.9°C 35.2°F1.8°C 61% 3.8 mph NE6.1 kmh NE 7.2 mph11.6 kmh 30.39 in1029.1 mb 0.00 in0.0 mm 0.00 in/hr0.0 mm/hr 0.00 in0.0 mm
09:44 AM 48.2°F9.0°C 35.0°F1.7°C 60% 4.5 mph NE7.2 kmh NE 7.4 mph11.9 kmh 30.39 in1029.1 mb 0.00 in0.0 mm 0.00 in/hr0.0 mm/hr 0.00 in0.0 mm
09:49 AM 48.4°F9.1°C 35.2°F1.8°C 60% 5.4 mph SE8.7 kmh SE 11.0 mph17.7 kmh 30.39 in1029.1 mb 0.00 in0.0 mm 0.00 in/hr0.0 mm/hr 0.00 in0.0 mm
09:54 AM 48.7°F9.3°C 35.5°F1.9°C 60% 3.1 mph SE5.0 kmh SE 6.0 mph9.7 kmh 30.39 in1029.1 mb 0.00 in0.0 mm 0.00 in/hr0.0 mm/hr 0.00 in0.0 mm
10:00 AM 48.9°F9.4°C 35.2°F1.8°C 59% 6.5 mph NNE10.5 kmh NNE 7.6 mph12.2 kmh 30.41 in1029.8 mb 0.00 in0.0 mm 0.00 in/hr0.0 mm/hr 0.00 in0.0 mm
10:05 AM 49.1°F9.5°C 35.4°F1.9°C 59% 8.5 mph NNE13.7 kmh NNE 11.0 mph17.7 kmh 30.41 in1029.8 mb 0.00 in0.0 mm 0.00 in/hr0.0 mm/hr 0.00 in0.0 mm
10:10 AM 49.5°F9.7°C 35.7°F2.1°C 59% 1.1 mph NW1.8 kmh NW 8.5 mph13.7 kmh 30.41 in1029.8 mb 0.00 in0.0 mm 0.00 in/hr0.0 mm/hr 0.00 in0.0 mm
10:15 AM 49.6°F9.8°C 35.5°F1.9°C 58% 3.4 mph 5.5 kmh 7.8 mph12.6 kmh 30.41 in1029.8 mb 0.00 in0.0 mm 0.00 in/hr0.0 mm/hr 0.00 in0.0 mm
10:18 AM 49.8°F9.9°C 35.7°F2.1°C 58% 3.4 mph NE5.5 kmh NE 3.4 mph5.5 kmh 30.41 in1029.8 mb 0.00 in0.0 mm 0.00 in/hr0.0 mm/hr 0.00 in0.0 mm
10:24 AM 50.0°F10.0°C 35.4°F1.9°C 57% 6.9 mph NNE11.1 kmh NNE 6.9 mph11.1 kmh 30.41 in1029.8 mb 0.00 in0.0 mm 0.00 in/hr0.0 mm/hr 0.00 in0.0 mm
10:29 AM 50.2°F10.1°C 35.6°F2.0°C 57% 7.4 mph NNE11.9 kmh NNE 11.0 mph17.7 kmh 30.41 in1029.8 mb 0.00 in0.0 mm 0.00 in/hr0.0 mm/hr 0.00 in0.0 mm
10:34 AM 50.5°F10.3°C 35.9°F2.2°C 57% 6.0 mph NE9.7 kmh NE 11.2 mph18.0 kmh 30.41 in1029.8 mb 0.00 in0.0 mm 0.00 in/hr0.0 mm/hr 0.00 in0.0 mm
10:39 AM 50.5°F10.3°C 35.4°F1.9°C 56% 4.3 mph WNW6.9 kmh WNW 10.1 mph16.3 kmh 30.41 in1029.8 mb 0.00 in0.0 mm 0.00 in/hr0.0 mm/hr 0.00 in0.0 mm
10:44 AM 50.9°F10.5°C 35.8°F2.1°C 56% 4.0 mph NNW6.4 kmh NNW 7.8 mph12.6 kmh 30.41 in1029.8 mb 0.00 in0.0 mm 0.00 in/hr0.0 mm/hr 0.00 in0.0 mm
10:49 AM 51.1°F10.6°C 36.0°F2.2°C 56% 4.9 mph NE7.9 kmh NE 7.8 mph12.6 kmh 30.41 in1029.8 mb 0.00 in0.0 mm 0.00 in/hr0.0 mm/hr 0.00 in0.0 mm
10:54 AM 51.6°F10.9°C 36.5°F2.5°C 56% 5.6 mph NNE9.0 kmh NNE 6.5 mph10.5 kmh 30.41 in1029.8 mb 0.00 in0.0 mm 0.00 in/hr0.0 mm/hr 0.00 in0.0 mm
10:59 AM 52.5°F11.4°C 36.8°F2.7°C 55% 5.4 mph NNE8.7 kmh NNE 13.0 mph20.9 kmh 30.41 in1029.8 mb 0.00 in0.0 mm 0.00 in/hr0.0 mm/hr 0.00 in0.0 mm
11:05 AM 53.1°F11.7°C 37.3°F2.9°C 55% 2.2 mph ENE3.5 kmh ENE 13.0 mph20.9 kmh 30.41 in1029.8 mb 0.00 in0.0 mm 0.00 in/hr0.0 mm/hr 0.00 in0.0 mm
11:10 AM 53.4°F11.9°C 37.2°F2.9°C 54% 5.6 mph NE9.0 kmh NE 7.2 mph11.6 kmh 30.41 in1029.8 mb 0.00 in0.0 mm 0.00 in/hr0.0 mm/hr 0.00 in0.0 mm
11:15 AM 53.6°F12.0°C 36.9°F2.7°C 53% 2.5 mph NNW4.0 kmh NNW 6.5 mph10.5 kmh 30.41 in1029.8 mb 0.00 in0.0 mm 0.00 in/hr0.0 mm/hr 0.00 in0.0 mm
11:19 AM 53.8°F12.1°C 37.1°F2.8°C 53% 3.1 mph NNE5.0 kmh NNE 6.5 mph10.5 kmh 30.41 in1029.8 mb 0.00 in0.0 mm 0.00 in/hr0.0 mm/hr 0.00 in0.0 mm
11:24 AM 53.8°F12.1°C 36.6°F2.6°C 52% 2.9 mph NNE4.7 kmh NNE 7.2 mph11.6 kmh 30.41 in1029.8 mb 0.00 in0.0 mm 0.00 in/hr0.0 mm/hr 0.00 in0.0 mm
11:29 AM 54.0°F12.2°C 36.8°F2.7°C 52% 7.8 mph 12.6 kmh 7.8 mph12.6 kmh 30.41 in1029.8 mb 0.00 in0.0 mm 0.00 in/hr0.0 mm/hr 0.00 in0.0 mm
11:34 AM 54.3°F12.4°C 37.1°F2.8°C 52% 5.8 mph NNE9.3 kmh NNE 7.6 mph12.2 kmh 30.41 in1029.8 mb 0.00 in0.0 mm 0.00 in/hr0.0 mm/hr 0.00 in0.0 mm
11:39 AM 54.9°F12.7°C 37.6°F3.1°C 52% 5.6 mph E9.0 kmh E 7.8 mph12.6 kmh 30.41 in1029.8 mb 0.00 in0.0 mm 0.00 in/hr0.0 mm/hr 0.00 in0.0 mm
11:44 AM 55.4°F13.0°C 37.6°F3.1°C 51% 4.9 mph NE7.9 kmh NE 5.4 mph8.7 kmh 30.41 in1029.8 mb 0.00 in0.0 mm 0.00 in/hr0.0 mm/hr 0.00 in0.0 mm
11:49 AM 55.9°F13.3°C 37.6°F3.1°C 50% 6.0 mph NE9.7 kmh NE 6.0 mph9.7 kmh 30.41 in1029.8 mb 0.00 in0.0 mm 0.00 in/hr0.0 mm/hr 0.00 in0.0 mm
11:54 AM 55.9°F13.3°C 37.1°F2.8°C 49% 4.3 mph E6.9 kmh E 7.4 mph11.9 kmh 30.41 in1029.8 mb 0.00 in0.0 mm 0.00 in/hr0.0 mm/hr 0.00 in0.0 mm
11:59 AM 56.1°F13.4°C 37.2°F2.9°C 49% 5.8 mph SSE9.3 kmh SSE 6.5 mph10.5 kmh 30.41 in1029.8 mb 0.00 in0.0 mm 0.00 in/hr0.0 mm/hr 0.00 in0.0 mm
12:05 PM 56.3°F13.5°C 37.4°F3.0°C 49% 4.7 mph NE7.6 kmh NE 6.5 mph10.5 kmh 30.41 in1029.8 mb 0.00 in0.0 mm 0.00 in/hr0.0 mm/hr 0.00 in0.0 mm
12:10 PM 56.7°F13.7°C 37.7°F3.2°C 49% 2.5 mph NNE4.0 kmh NNE 11.0 mph17.7 kmh 30.41 in1029.8 mb 0.00 in0.0 mm 0.00 in/hr0.0 mm/hr 0.00 in0.0 mm
12:15 PM 56.7°F13.7°C 37.2°F2.9°C 48% 2.7 mph ENE4.3 kmh ENE 9.4 mph15.1 kmh 30.41 in1029.8 mb 0.00 in0.0 mm 0.00 in/hr0.0 mm/hr 0.00 in0.0 mm
12:19 PM 56.7°F13.7°C 37.2°F2.9°C 48% 6.3 mph 10.1 kmh 7.4 mph11.9 kmh 30.41 in1029.8 mb 0.00 in0.0 mm 0.00 in/hr0.0 mm/hr 0.00 in0.0 mm
12:24 PM 56.1°F13.4°C 36.7°F2.6°C 48% 8.1 mph NE13.0 kmh NE 10.3 mph16.6 kmh 30.41 in1029.8 mb 0.00 in0.0 mm 0.00 in/hr0.0 mm/hr 0.00 in0.0 mm
12:29 PM 55.4°F13.0°C 36.1°F2.3°C 48% 6.5 mph NNE10.5 kmh NNE 11.0 mph17.7 kmh 30.39 in1029.1 mb 0.00 in0.0 mm 0.00 in/hr0.0 mm/hr 0.00 in0.0 mm
12:34 PM 54.5°F12.5°C 35.8°F2.1°C 49% 3.4 mph SE5.5 kmh SE 7.8 mph12.6 kmh 30.39 in1029.1 mb 0.00 in0.0 mm 0.00 in/hr0.0 mm/hr 0.00 in0.0 mm
12:39 PM 54.5°F12.5°C 35.8°F2.1°C 49% 8.1 mph ENE13.0 kmh ENE 9.8 mph15.8 kmh 30.39 in1029.1 mb 0.00 in0.0 mm 0.00 in/hr0.0 mm/hr 0.00 in0.0 mm
12:44 PM 54.3°F12.4°C 35.6°F2.0°C 49% 12.3 mph NNW19.8 kmh NNW 12.3 mph19.8 kmh 30.39 in1029.1 mb 0.00 in0.0 mm 0.00 in/hr0.0 mm/hr 0.00 in0.0 mm
12:49 PM 54.3°F12.4°C 36.1°F2.3°C 50% 5.4 mph ENE8.7 kmh ENE 7.2 mph11.6 kmh 30.39 in1029.1 mb 0.00 in0.0 mm 0.00 in/hr0.0 mm/hr 0.00 in0.0 mm
12:54 PM 54.3°F12.4°C 36.1°F2.3°C 50% Calm Calm 5.4 mph8.7 kmh 30.39 in1029.1 mb 0.00 in0.0 mm 0.00 in/hr0.0 mm/hr 0.00 in0.0 mm
12:59 PM 54.5°F12.5°C 36.3°F2.4°C 50% 4.5 mph ENE7.2 kmh ENE 12.5 mph20.1 kmh 30.39 in1029.1 mb 0.00 in0.0 mm 0.00 in/hr0.0 mm/hr 0.00 in0.0 mm
01:05 PM 54.9°F12.7°C 36.6°F2.6°C 50% 9.8 mph SSE15.8 kmh SSE 12.5 mph20.1 kmh 30.39 in1029.1 mb 0.00 in0.0 mm 0.00 in/hr0.0 mm/hr 0.00 in0.0 mm
01:10 PM 54.9°F12.7°C 36.6°F2.6°C 50% 3.1 mph ENE5.0 kmh ENE 9.8 mph15.8 kmh 30.39 in1029.1 mb 0.00 in0.0 mm 0.00 in/hr0.0 mm/hr 0.00 in0.0 mm
01:15 PM 55.0°F12.8°C 36.8°F2.7°C 50% 4.7 mph NE7.6 kmh NE 7.6 mph12.2 kmh 30.39 in1029.1 mb 0.00 in0.0 mm 0.00 in/hr0.0 mm/hr 0.00 in0.0 mm
01:19 PM 55.2°F12.9°C 36.9°F2.7°C 50% 3.6 mph SE5.8 kmh SE 4.7 mph7.6 kmh 30.39 in1029.1 mb 0.00 in0.0 mm 0.00 in/hr0.0 mm/hr 0.00 in0.0 mm
01:24 PM 55.4°F13.0°C 37.1°F2.8°C 50% 3.4 mph NE5.5 kmh NE 5.6 mph9.0 kmh 30.39 in1029.1 mb 0.00 in0.0 mm 0.00 in/hr0.0 mm/hr 0.00 in0.0 mm
01:29 PM 55.4°F13.0°C 37.1°F2.8°C 50% 2.5 mph NE4.0 kmh NE 6.5 mph10.5 kmh 30.36 in1028.1 mb 0.00 in0.0 mm 0.00 in/hr0.0 mm/hr 0.00 in0.0 mm
01:34 PM 55.6°F13.1°C 37.3°F2.9°C 50% 5.8 mph E9.3 kmh E 5.8 mph9.3 kmh 30.36 in1028.1 mb 0.00 in0.0 mm 0.00 in/hr0.0 mm/hr 0.00 in0.0 mm
01:39 PM 55.6°F13.1°C 37.3°F2.9°C 50% 6.0 mph NE9.7 kmh NE 6.5 mph10.5 kmh 30.36 in1028.1 mb 0.00 in0.0 mm 0.00 in/hr0.0 mm/hr 0.00 in0.0 mm
01:44 PM 55.6°F13.1°C 37.3°F2.9°C 50% 5.4 mph NNE8.7 kmh NNE 6.0 mph9.7 kmh 30.36 in1028.1 mb 0.00 in0.0 mm 0.00 in/hr0.0 mm/hr 0.00 in0.0 mm
01:49 PM 55.8°F13.2°C 37.9°F3.3°C 51% 6.5 mph NNE10.5 kmh NNE 6.9 mph11.1 kmh 30.36 in1028.1 mb 0.00 in0.0 mm 0.00 in/hr0.0 mm/hr 0.00 in0.0 mm
01:53 PM 55.8°F13.2°C 37.9°F3.3°C 51% 4.0 mph SE6.4 kmh SE 8.5 mph13.7 kmh 30.36 in1028.1 mb 0.00 in0.0 mm 0.00 in/hr0.0 mm/hr 0.00 in0.0 mm
01:59 PM 55.9°F13.3°C 38.1°F3.4°C 51% 9.4 mph NNE15.1 kmh NNE 9.4 mph15.1 kmh 30.36 in1028.1 mb 0.00 in0.0 mm 0.00 in/hr0.0 mm/hr 0.00 in0.0 mm
02:05 PM 56.1°F13.4°C 38.3°F3.5°C 51% 8.5 mph NE13.7 kmh NE 9.8 mph15.8 kmh 30.36 in1028.1 mb 0.00 in0.0 mm 0.00 in/hr0.0 mm/hr 0.00 in0.0 mm
02:10 PM 56.1°F13.4°C 38.3°F3.5°C 51% 5.8 mph NE9.3 kmh NE 8.5 mph13.7 kmh 30.36 in1028.1 mb 0.00 in0.0 mm 0.00 in/hr0.0 mm/hr 0.00 in0.0 mm
02:14 PM 56.3°F13.5°C 37.9°F3.3°C 50% 4.0 mph NNE6.4 kmh NNE 8.5 mph13.7 kmh 30.36 in1028.1 mb 0.00 in0.0 mm 0.00 in/hr0.0 mm/hr 0.00 in0.0 mm
02:20 PM 56.3°F13.5°C 37.9°F3.3°C 50% 8.7 mph NNE14.0 kmh NNE 8.7 mph14.0 kmh 30.36 in1028.1 mb 0.00 in0.0 mm 0.00 in/hr0.0 mm/hr 0.00 in0.0 mm
02:23 PM 56.3°F13.5°C 37.9°F3.3°C 50% 2.9 mph 4.7 kmh 8.7 mph14.0 kmh 30.36 in1028.1 mb 0.00 in0.0 mm 0.00 in/hr0.0 mm/hr 0.00 in0.0 mm
02:29 PM 56.3°F13.5°C 37.9°F3.3°C 50% 8.1 mph NE13.0 kmh NE 9.2 mph14.8 kmh 30.36 in1028.1 mb 0.00 in0.0 mm 0.00 in/hr0.0 mm/hr 0.00 in0.0 mm
02:34 PM 56.3°F13.5°C 37.9°F3.3°C 50% 3.4 mph NE5.5 kmh NE 8.1 mph13.0 kmh 30.36 in1028.1 mb 0.00 in0.0 mm 0.00 in/hr0.0 mm/hr 0.00 in0.0 mm
02:39 PM 56.3°F13.5°C 38.4°F3.6°C 51% 3.1 mph NE5.0 kmh NE 6.3 mph10.1 kmh 30.36 in1028.1 mb 0.00 in0.0 mm 0.00 in/hr0.0 mm/hr 0.00 in0.0 mm
02:43 PM 56.5°F13.6°C 38.6°F3.7°C 51% 3.1 mph ENE5.0 kmh ENE 6.3 mph10.1 kmh 30.36 in1028.1 mb 0.00 in0.0 mm 0.00 in/hr0.0 mm/hr 0.00 in0.0 mm
02:49 PM 56.7°F13.7°C 38.3°F3.5°C 50% 7.4 mph NE11.9 kmh NE 7.4 mph11.9 kmh 30.36 in1028.1 mb 0.00 in0.0 mm 0.00 in/hr0.0 mm/hr 0.00 in0.0 mm
02:54 PM 56.7°F13.7°C 38.3°F3.5°C 50% 1.6 mph E2.6 kmh E 7.6 mph12.2 kmh 30.36 in1028.1 mb 0.00 in0.0 mm 0.00 in/hr0.0 mm/hr 0.00 in0.0 mm
02:59 PM 56.7°F13.7°C 38.3°F3.5°C 50% 3.4 mph NE5.5 kmh NE 6.0 mph9.7 kmh 30.36 in1028.1 mb 0.00 in0.0 mm 0.00 in/hr0.0 mm/hr 0.00 in0.0 mm
03:05 PM 56.7°F13.7°C 38.3°F3.5°C 50% 7.2 mph NNW11.6 kmh NNW 7.2 mph11.6 kmh 30.36 in1028.1 mb 0.00 in0.0 mm 0.00 in/hr0.0 mm/hr 0.00 in0.0 mm
03:10 PM 56.8°F13.8°C 38.4°F3.6°C 50% 6.3 mph NE10.1 kmh NE 6.3 mph10.1 kmh 30.36 in1028.1 mb 0.00 in0.0 mm 0.00 in/hr0.0 mm/hr 0.00 in0.0 mm
03:15 PM 56.8°F13.8°C 38.4°F3.6°C 50% 8.1 mph ENE13.0 kmh ENE 8.1 mph13.0 kmh 30.36 in1028.1 mb 0.00 in0.0 mm 0.00 in/hr0.0 mm/hr 0.00 in0.0 mm
03:20 PM 56.8°F13.8°C 38.4°F3.6°C 50% 7.4 mph NE11.9 kmh NE 8.5 mph13.7 kmh 30.36 in1028.1 mb 0.00 in0.0 mm 0.00 in/hr0.0 mm/hr 0.00 in0.0 mm
03:24 PM 56.8°F13.8°C 38.4°F3.6°C 50% 2.7 mph WSW4.3 kmh WSW 8.5 mph13.7 kmh 30.36 in1028.1 mb 0.00 in0.0 mm 0.00 in/hr0.0 mm/hr 0.00 in0.0 mm
03:29 PM 57.0°F13.9°C 38.6°F3.7°C 50% 6.9 mph NE11.1 kmh NE 7.8 mph12.6 kmh 30.36 in1028.1 mb 0.00 in0.0 mm 0.00 in/hr0.0 mm/hr 0.00 in0.0 mm
03:34 PM 57.0°F13.9°C 38.6°F3.7°C 50% Calm Calm 4.0 mph6.4 kmh 30.36 in1028.1 mb 0.00 in0.0 mm 0.00 in/hr0.0 mm/hr 0.00 in0.0 mm
03:39 PM 57.0°F13.9°C 38.6°F3.7°C 50% 2.0 mph NE3.2 kmh NE 7.6 mph12.2 kmh 30.36 in1028.1 mb 0.00 in0.0 mm 0.00 in/hr0.0 mm/hr 0.00 in0.0 mm
03:44 PM 57.0°F13.9°C 38.6°F3.7°C 50% 2.0 mph NE3.2 kmh NE 2.7 mph4.3 kmh 30.36 in1028.1 mb 0.00 in0.0 mm 0.00 in/hr0.0 mm/hr 0.00 in0.0 mm
03:49 PM 57.0°F13.9°C 38.6°F3.7°C 50% 5.8 mph E9.3 kmh E 5.8 mph9.3 kmh 30.36 in1028.1 mb 0.00 in0.0 mm 0.00 in/hr0.0 mm/hr 0.00 in0.0 mm
03:54 PM 57.0°F13.9°C 38.6°F3.7°C 50% 3.4 mph NE5.5 kmh NE 4.7 mph7.6 kmh 30.36 in1028.1 mb 0.00 in0.0 mm 0.00 in/hr0.0 mm/hr 0.00 in0.0 mm
03:59 PM 57.2°F14.0°C 38.8°F3.8°C 50% 5.8 mph NE9.3 kmh NE 11.0 mph17.7 kmh 30.36 in1028.1 mb 0.00 in0.0 mm 0.00 in/hr0.0 mm/hr 0.00 in0.0 mm
04:04 PM 57.0°F13.9°C 38.6°F3.7°C 50% 3.4 mph NE5.5 kmh NE 5.8 mph9.3 kmh 30.36 in1028.1 mb 0.00 in0.0 mm 0.00 in/hr0.0 mm/hr 0.00 in0.0 mm
04:10 PM 57.0°F13.9°C 38.6°F3.7°C 50% 4.3 mph NNW6.9 kmh NNW 4.9 mph7.9 kmh 30.36 in1028.1 mb 0.00 in0.0 mm 0.00 in/hr0.0 mm/hr 0.00 in0.0 mm
04:15 PM 56.8°F13.8°C 38.4°F3.6°C 50% 3.1 mph NNE5.0 kmh NNE 4.3 mph6.9 kmh 30.36 in1028.1 mb 0.00 in0.0 mm 0.00 in/hr0.0 mm/hr 0.00 in0.0 mm
04:20 PM 56.8°F13.8°C 38.4°F3.6°C 50% 5.8 mph ENE9.3 kmh ENE 6.5 mph10.5 kmh 30.36 in1028.1 mb 0.00 in0.0 mm 0.00 in/hr0.0 mm/hr 0.00 in0.0 mm
04:24 PM 56.8°F13.8°C 38.4°F3.6°C 50% 5.4 mph NNE8.7 kmh NNE 9.8 mph15.8 kmh 30.36 in1028.1 mb 0.00 in0.0 mm 0.00 in/hr0.0 mm/hr 0.00 in0.0 mm
04:29 PM 56.8°F13.8°C 38.4°F3.6°C 50% 4.9 mph NE7.9 kmh NE 6.3 mph10.1 kmh 30.36 in1028.1 mb 0.00 in0.0 mm 0.00 in/hr0.0 mm/hr 0.00 in0.0 mm
04:34 PM 56.7°F13.7°C 38.3°F3.5°C 50% 4.7 mph NNE7.6 kmh NNE 4.7 mph7.6 kmh 30.36 in1028.1 mb 0.00 in0.0 mm 0.00 in/hr0.0 mm/hr 0.00 in0.0 mm
04:39 PM 56.5°F13.6°C 38.1°F3.4°C 50% 6.3 mph NE10.1 kmh NE 6.3 mph10.1 kmh 30.36 in1028.1 mb 0.00 in0.0 mm 0.00 in/hr0.0 mm/hr 0.00 in0.0 mm
04:44 PM 56.5°F13.6°C 38.1°F3.4°C 50% 1.3 mph NE2.1 kmh NE 8.7 mph14.0 kmh 30.36 in1028.1 mb 0.00 in0.0 mm 0.00 in/hr0.0 mm/hr 0.00 in0.0 mm
04:49 PM 56.3°F13.5°C 37.9°F3.3°C 50% 7.6 mph NE12.2 kmh NE 8.7 mph14.0 kmh 30.36 in1028.1 mb 0.00 in0.0 mm 0.00 in/hr0.0 mm/hr 0.00 in0.0 mm
04:54 PM 56.1°F13.4°C 38.3°F3.5°C 51% 3.8 mph NNE6.1 kmh NNE 7.2 mph11.6 kmh 30.36 in1028.1 mb 0.00 in0.0 mm 0.00 in/hr0.0 mm/hr 0.00 in0.0 mm
04:59 PM 55.9°F13.3°C 38.1°F3.4°C 51% 6.0 mph NE9.7 kmh NE 6.5 mph10.5 kmh 30.39 in1029.1 mb 0.00 in0.0 mm 0.00 in/hr0.0 mm/hr 0.00 in0.0 mm
05:04 PM 55.8°F13.2°C 37.9°F3.3°C 51% 4.0 mph NE6.4 kmh NE 6.9 mph11.1 kmh 30.39 in1029.1 mb 0.00 in0.0 mm 0.00 in/hr0.0 mm/hr 0.00 in0.0 mm
05:10 PM 55.6°F13.1°C 37.8°F3.2°C 51% 2.9 mph NE4.7 kmh NE 6.5 mph10.5 kmh 30.39 in1029.1 mb 0.00 in0.0 mm 0.00 in/hr0.0 mm/hr 0.00 in0.0 mm
05:15 PM 55.6°F13.1°C 37.8°F3.2°C 51% 8.5 mph NE13.7 kmh NE 8.5 mph13.7 kmh 30.39 in1029.1 mb 0.00 in0.0 mm 0.00 in/hr0.0 mm/hr 0.00 in0.0 mm
05:20 PM 55.2°F12.9°C 37.9°F3.3°C 52% 7.4 mph NNE11.9 kmh NNE 8.5 mph13.7 kmh 30.39 in1029.1 mb 0.00 in0.0 mm 0.00 in/hr0.0 mm/hr 0.00 in0.0 mm
05:24 PM 55.2°F12.9°C 37.9°F3.3°C 52% 4.3 mph 6.9 kmh 7.4 mph11.9 kmh 30.39 in1029.1 mb 0.00 in0.0 mm 0.00 in/hr0.0 mm/hr 0.00 in0.0 mm
05:29 PM 54.9°F12.7°C 37.6°F3.1°C 52% 8.5 mph NNE13.7 kmh NNE 8.5 mph13.7 kmh 30.39 in1029.1 mb 0.00 in0.0 mm 0.00 in/hr0.0 mm/hr 0.00 in0.0 mm
05:34 PM 54.7°F12.6°C 37.4°F3.0°C 52% 4.3 mph NE6.9 kmh NE 8.5 mph13.7 kmh 30.39 in1029.1 mb 0.00 in0.0 mm 0.00 in/hr0.0 mm/hr 0.00 in0.0 mm
05:39 PM 54.5°F12.5°C 37.3°F2.9°C 52% 5.4 mph NE8.7 kmh NE 6.9 mph11.1 kmh 30.39 in1029.1 mb 0.00 in0.0 mm 0.00 in/hr0.0 mm/hr 0.00 in0.0 mm
05:43 PM 54.5°F12.5°C 37.3°F2.9°C 52% 3.6 mph NE5.8 kmh NE 8.1 mph13.0 kmh 30.39 in1029.1 mb 0.00 in0.0 mm 0.00 in/hr0.0 mm/hr 0.00 in0.0 mm
05:49 PM 54.3°F12.4°C 37.1°F2.8°C 52% 2.7 mph NE4.3 kmh NE 7.8 mph12.6 kmh 30.39 in1029.1 mb 0.00 in0.0 mm 0.00 in/hr0.0 mm/hr 0.00 in0.0 mm
05:54 PM 54.1°F12.3°C 37.4°F3.0°C 53% 5.6 mph NNE9.0 kmh NNE 5.6 mph9.0 kmh 30.39 in1029.1 mb 0.00 in0.0 mm 0.00 in/hr0.0 mm/hr 0.00 in0.0 mm
05:59 PM 54.0°F12.2°C 37.2°F2.9°C 53% 3.4 mph NE5.5 kmh NE 5.8 mph9.3 kmh 30.39 in1029.1 mb 0.00 in0.0 mm 0.00 in/hr0.0 mm/hr 0.00 in0.0 mm
06:04 PM 54.0°F12.2°C 37.2°F2.9°C 53% 2.9 mph ENE4.7 kmh ENE 8.1 mph13.0 kmh 30.39 in1029.1 mb 0.00 in0.0 mm 0.00 in/hr0.0 mm/hr 0.00 in0.0 mm
06:10 PM 53.8°F12.1°C 37.1°F2.8°C 53% 3.1 mph NNE5.0 kmh NNE 6.3 mph10.1 kmh 30.39 in1029.1 mb 0.00 in0.0 mm 0.00 in/hr0.0 mm/hr 0.00 in0.0 mm
06:15 PM 53.8°F12.1°C 37.1°F2.8°C 53% 7.4 mph NW11.9 kmh NW 8.7 mph14.0 kmh 30.39 in1029.1 mb 0.00 in0.0 mm 0.00 in/hr0.0 mm/hr 0.00 in0.0 mm
06:20 PM 53.6°F12.0°C 36.9°F2.7°C 53% 4.3 mph 6.9 kmh 8.7 mph14.0 kmh 30.39 in1029.1 mb 0.00 in0.0 mm 0.00 in/hr0.0 mm/hr 0.00 in0.0 mm
06:24 PM 53.6°F12.0°C 36.9°F2.7°C 53% 2.7 mph NNE4.3 kmh NNE 7.2 mph11.6 kmh 30.39 in1029.1 mb 0.00 in0.0 mm 0.00 in/hr0.0 mm/hr 0.00 in0.0 mm
06:29 PM 53.6°F12.0°C 36.9°F2.7°C 53% 4.3 mph NE6.9 kmh NE 6.0 mph9.7 kmh 30.39 in1029.1 mb 0.00 in0.0 mm 0.00 in/hr0.0 mm/hr 0.00 in0.0 mm
06:34 PM 53.6°F12.0°C 36.9°F2.7°C 53% 2.7 mph NE4.3 kmh NE 6.5 mph10.5 kmh 30.39 in1029.1 mb 0.00 in0.0 mm 0.00 in/hr0.0 mm/hr 0.00 in0.0 mm
06:39 PM 53.4°F11.9°C 37.2°F2.9°C 54% 3.4 mph NNE5.5 kmh NNE 4.0 mph6.4 kmh 30.39 in1029.1 mb 0.00 in0.0 mm 0.00 in/hr0.0 mm/hr 0.00 in0.0 mm
06:44 PM 53.4°F11.9°C 37.2°F2.9°C 54% 6.3 mph NNE10.1 kmh NNE 6.3 mph10.1 kmh 30.39 in1029.1 mb 0.00 in0.0 mm 0.00 in/hr0.0 mm/hr 0.00 in0.0 mm
06:49 PM 53.4°F11.9°C 37.2°F2.9°C 54% 4.0 mph 6.4 kmh 6.3 mph10.1 kmh 30.39 in1029.1 mb 0.00 in0.0 mm 0.00 in/hr0.0 mm/hr 0.00 in0.0 mm
06:53 PM 53.4°F11.9°C 37.2°F2.9°C 54% 3.8 mph NE6.1 kmh NE 4.9 mph7.9 kmh 30.39 in1029.1 mb 0.00 in0.0 mm 0.00 in/hr0.0 mm/hr 0.00 in0.0 mm
06:59 PM 53.2°F11.8°C 37.0°F2.8°C 54% 3.1 mph NNE5.0 kmh NNE 4.0 mph6.4 kmh 30.39 in1029.1 mb 0.00 in0.0 mm 0.00 in/hr0.0 mm/hr 0.00 in0.0 mm
07:04 PM 53.2°F11.8°C 37.0°F2.8°C 54% 5.4 mph 8.7 kmh 5.4 mph8.7 kmh 30.39 in1029.1 mb 0.00 in0.0 mm 0.00 in/hr0.0 mm/hr 0.00 in0.0 mm
07:10 PM 53.1°F11.7°C 36.9°F2.7°C 54% 4.7 mph 7.6 kmh 4.7 mph7.6 kmh 30.39 in1029.1 mb 0.00 in0.0 mm 0.00 in/hr0.0 mm/hr 0.00 in0.0 mm
07:15 PM 53.1°F11.7°C 36.9°F2.7°C 54% 4.9 mph NE7.9 kmh NE 4.9 mph7.9 kmh 30.41 in1029.8 mb 0.00 in0.0 mm 0.00 in/hr0.0 mm/hr 0.00 in0.0 mm
07:20 PM 53.1°F11.7°C 36.9°F2.7°C 54% 4.3 mph NNE6.9 kmh NNE 6.5 mph10.5 kmh 30.41 in1029.8 mb 0.00 in0.0 mm 0.00 in/hr0.0 mm/hr 0.00 in0.0 mm
07:23 PM 53.1°F11.7°C 36.9°F2.7°C 54% 4.7 mph NE7.6 kmh NE 4.7 mph7.6 kmh 30.41 in1029.8 mb 0.00 in0.0 mm 0.00 in/hr0.0 mm/hr 0.00 in0.0 mm
07:28 PM 53.1°F11.7°C 36.9°F2.7°C 54% 3.4 mph NNE5.5 kmh NNE 3.4 mph5.5 kmh 30.41 in1029.8 mb 0.00 in0.0 mm 0.00 in/hr0.0 mm/hr 0.00 in0.0 mm
07:34 PM 53.1°F11.7°C 36.9°F2.7°C 54% 2.9 mph NNE4.7 kmh NNE 3.1 mph5.0 kmh 30.41 in1029.8 mb 0.00 in0.0 mm 0.00 in/hr0.0 mm/hr 0.00 in0.0 mm
07:39 PM 53.1°F11.7°C 36.9°F2.7°C 54% 2.5 mph NNE4.0 kmh NNE 3.6 mph5.8 kmh 30.41 in1029.8 mb 0.00 in0.0 mm 0.00 in/hr0.0 mm/hr 0.00 in0.0 mm
07:44 PM 53.1°F11.7°C 36.9°F2.7°C 54% 3.8 mph NNE6.1 kmh NNE 3.8 mph6.1 kmh 30.41 in1029.8 mb 0.00 in0.0 mm 0.00 in/hr0.0 mm/hr 0.00 in0.0 mm
07:49 PM 53.1°F11.7°C 37.3°F2.9°C 55% 3.1 mph 5.0 kmh 3.4 mph5.5 kmh 30.41 in1029.8 mb 0.00 in0.0 mm 0.00 in/hr0.0 mm/hr 0.00 in0.0 mm
07:54 PM 53.1°F11.7°C 37.3°F2.9°C 55% 3.4 mph NNE5.5 kmh NNE 3.8 mph6.1 kmh 30.41 in1029.8 mb 0.00 in0.0 mm 0.00 in/hr0.0 mm/hr 0.00 in0.0 mm
07:59 PM 53.1°F11.7°C 37.3°F2.9°C 55% 3.4 mph NE5.5 kmh NE 3.8 mph6.1 kmh 30.41 in1029.8 mb 0.00 in0.0 mm 0.00 in/hr0.0 mm/hr 0.00 in0.0 mm
08:04 PM 52.9°F11.6°C 37.2°F2.9°C 55% 2.7 mph NNE4.3 kmh NNE 4.9 mph7.9 kmh 30.41 in1029.8 mb 0.00 in0.0 mm 0.00 in/hr0.0 mm/hr 0.00 in0.0 mm
08:10 PM 52.7°F11.5°C 37.0°F2.8°C 55% 3.6 mph NNE5.8 kmh NNE 4.3 mph6.9 kmh 30.41 in1029.8 mb 0.00 in0.0 mm 0.00 in/hr0.0 mm/hr 0.00 in0.0 mm
08:15 PM 52.7°F11.5°C 37.0°F2.8°C 55% 2.7 mph NNE4.3 kmh NNE 4.0 mph6.4 kmh 30.41 in1029.8 mb 0.00 in0.0 mm 0.00 in/hr0.0 mm/hr 0.00 in0.0 mm
08:20 PM 52.5°F11.4°C 36.8°F2.7°C 55% 2.7 mph NNE4.3 kmh NNE 4.0 mph6.4 kmh 30.41 in1029.8 mb 0.00 in0.0 mm 0.00 in/hr0.0 mm/hr 0.00 in0.0 mm
08:24 PM 52.5°F11.4°C 36.8°F2.7°C 55% 2.5 mph NNE4.0 kmh NNE 2.9 mph4.7 kmh 30.41 in1029.8 mb 0.00 in0.0 mm 0.00 in/hr0.0 mm/hr 0.00 in0.0 mm
08:29 PM 52.3°F11.3°C 36.7°F2.6°C 55% 3.4 mph NNE5.5 kmh NNE 3.4 mph5.5 kmh 30.41 in1029.8 mb 0.00 in0.0 mm 0.00 in/hr0.0 mm/hr 0.00 in0.0 mm
08:34 PM 52.3°F11.3°C 36.7°F2.6°C 55% 2.0 mph NNE3.2 kmh NNE 2.9 mph4.7 kmh 30.41 in1029.8 mb 0.00 in0.0 mm 0.00 in/hr0.0 mm/hr 0.00 in0.0 mm
08:39 PM 52.2°F11.2°C 36.5°F2.5°C 55% 2.5 mph NE4.0 kmh NE 2.5 mph4.0 kmh 30.41 in1029.8 mb 0.00 in0.0 mm 0.00 in/hr0.0 mm/hr 0.00 in0.0 mm
08:44 PM 52.2°F11.2°C 37.0°F2.8°C 56% 2.0 mph NNE3.2 kmh NNE 2.9 mph4.7 kmh 30.44 in1030.8 mb 0.00 in0.0 mm 0.00 in/hr0.0 mm/hr 0.00 in0.0 mm
08:49 PM 52.2°F11.2°C 37.0°F2.8°C 56% 2.0 mph NE3.2 kmh NE 2.5 mph4.0 kmh 30.44 in1030.8 mb 0.00 in0.0 mm 0.00 in/hr0.0 mm/hr 0.00 in0.0 mm
08:54 PM 52.3°F11.3°C 37.1°F2.8°C 56% 2.0 mph NE3.2 kmh NE 2.2 mph3.5 kmh 30.44 in1030.8 mb 0.00 in0.0 mm 0.00 in/hr0.0 mm/hr 0.00 in0.0 mm
08:59 PM 52.2°F11.2°C 37.0°F2.8°C 56% 0.9 mph NNE1.4 kmh NNE 3.1 mph5.0 kmh 30.44 in1030.8 mb 0.00 in0.0 mm 0.00 in/hr0.0 mm/hr 0.00 in0.0 mm
09:04 PM 52.2°F11.2°C 37.0°F2.8°C 56% 2.0 mph NNE3.2 kmh NNE 3.1 mph5.0 kmh 30.44 in1030.8 mb 0.00 in0.0 mm 0.00 in/hr0.0 mm/hr 0.00 in0.0 mm
09:10 PM 52.2°F11.2°C 37.0°F2.8°C 56% 3.1 mph NNE5.0 kmh NNE 3.1 mph5.0 kmh 30.44 in1030.8 mb 0.00 in0.0 mm 0.00 in/hr0.0 mm/hr 0.00 in0.0 mm
09:15 PM 52.2°F11.2°C 37.4°F3.0°C 57% 3.8 mph NE6.1 kmh NE 4.0 mph6.4 kmh 30.44 in1030.8 mb 0.00 in0.0 mm 0.00 in/hr0.0 mm/hr 0.00 in0.0 mm
09:19 PM 52.2°F11.2°C 37.4°F3.0°C 57% 1.1 mph NNE1.8 kmh NNE 3.8 mph6.1 kmh 30.44 in1030.8 mb 0.00 in0.0 mm 0.00 in/hr0.0 mm/hr 0.00 in0.0 mm
09:25 PM 52.2°F11.2°C 37.4°F3.0°C 57% 1.6 mph NNE2.6 kmh NNE 3.8 mph6.1 kmh 30.44 in1030.8 mb 0.00 in0.0 mm 0.00 in/hr0.0 mm/hr 0.00 in0.0 mm
09:29 PM 52.2°F11.2°C 37.4°F3.0°C 57% 2.0 mph NNE3.2 kmh NNE 2.9 mph4.7 kmh 30.44 in1030.8 mb 0.00 in0.0 mm 0.00 in/hr0.0 mm/hr 0.00 in0.0 mm
09:34 PM 52.0°F11.1°C 37.2°F2.9°C 57% 2.9 mph NNE4.7 kmh NNE 2.9 mph4.7 kmh 30.44 in1030.8 mb 0.00 in0.0 mm 0.00 in/hr0.0 mm/hr 0.00 in0.0 mm
09:38 PM 52.0°F11.1°C 37.2°F2.9°C 57% 2.5 mph NE4.0 kmh NE 2.7 mph4.3 kmh 30.44 in1030.8 mb 0.00 in0.0 mm 0.00 in/hr0.0 mm/hr 0.00 in0.0 mm
09:44 PM 52.0°F11.1°C 37.2°F2.9°C 57% Calm Calm 2.5 mph4.0 kmh 30.44 in1030.8 mb 0.00 in0.0 mm 0.00 in/hr0.0 mm/hr 0.00 in0.0 mm
09:50 PM 51.8°F11.0°C 37.1°F2.8°C 57% 1.3 mph NE2.1 kmh NE 1.3 mph2.1 kmh 30.44 in1030.8 mb 0.00 in0.0 mm 0.00 in/hr0.0 mm/hr 0.00 in0.0 mm
09:53 PM 51.8°F11.0°C 37.1°F2.8°C 57% 1.1 mph NE1.8 kmh NE 1.6 mph2.6 kmh 30.44 in1030.8 mb 0.00 in0.0 mm 0.00 in/hr0.0 mm/hr 0.00 in0.0 mm
09:59 PM 51.8°F11.0°C 37.5°F3.1°C 58% Calm Calm 1.3 mph2.1 kmh 30.44 in1030.8 mb 0.00 in0.0 mm 0.00 in/hr0.0 mm/hr 0.00 in0.0 mm
10:04 PM 51.6°F10.9°C 37.3°F2.9°C 58% Calm Calm -- 30.44 in1030.8 mb 0.00 in0.0 mm 0.00 in/hr0.0 mm/hr 0.00 in0.0 mm
10:09 PM 51.8°F11.0°C 37.5°F3.1°C 58% Calm Calm -- 30.44 in1030.8 mb 0.00 in0.0 mm 0.00 in/hr0.0 mm/hr 0.00 in0.0 mm
10:15 PM 51.8°F11.0°C 37.9°F3.3°C 59% 1.6 mph NE2.6 kmh NE 1.6 mph2.6 kmh 30.41 in1029.8 mb 0.00 in0.0 mm 0.00 in/hr0.0 mm/hr 0.00 in0.0 mm
10:20 PM 51.8°F11.0°C 37.9°F3.3°C 59% Calm Calm 1.6 mph2.6 kmh 30.41 in1029.8 mb 0.00 in0.0 mm 0.00 in/hr0.0 mm/hr 0.00 in0.0 mm
10:25 PM 51.8°F11.0°C 37.9°F3.3°C 59% 1.3 mph NNE2.1 kmh NNE 2.2 mph3.5 kmh 30.41 in1029.8 mb 0.00 in0.0 mm 0.00 in/hr0.0 mm/hr 0.00 in0.0 mm
10:29 PM 51.8°F11.0°C 37.9°F3.3°C 59% 1.6 mph NE2.6 kmh NE 2.2 mph3.5 kmh 30.44 in1030.8 mb 0.00 in0.0 mm 0.00 in/hr0.0 mm/hr 0.00 in0.0 mm
10:34 PM 51.8°F11.0°C 38.4°F3.6°C 60% 1.3 mph NE2.1 kmh NE 1.6 mph2.6 kmh 30.44 in1030.8 mb 0.00 in0.0 mm 0.00 in/hr0.0 mm/hr 0.00 in0.0 mm
10:39 PM 51.8°F11.0°C 38.4°F3.6°C 60% 1.6 mph NE2.6 kmh NE 1.6 mph2.6 kmh 30.44 in1030.8 mb 0.00 in0.0 mm 0.00 in/hr0.0 mm/hr 0.00 in0.0 mm
10:44 PM 51.8°F11.0°C 38.4°F3.6°C 60% 1.3 mph NE2.1 kmh NE 2.2 mph3.5 kmh 30.44 in1030.8 mb 0.00 in0.0 mm 0.00 in/hr0.0 mm/hr 0.00 in0.0 mm
10:49 PM 51.8°F11.0°C 38.4°F3.6°C 60% Calm Calm -- 30.44 in1030.8 mb 0.00 in0.0 mm 0.00 in/hr0.0 mm/hr 0.00 in0.0 mm
10:54 PM 51.8°F11.0°C 38.8°F3.8°C 61% Calm Calm -- 30.44 in1030.8 mb 0.00 in0.0 mm 0.00 in/hr0.0 mm/hr 0.00 in0.0 mm
10:59 PM 51.6°F10.9°C 38.6°F3.7°C 61% Calm Calm 1.3 mph2.1 kmh 30.44 in1030.8 mb 0.00 in0.0 mm 0.00 in/hr0.0 mm/hr 0.00 in0.0 mm
11:04 PM 51.6°F10.9°C 38.6°F3.7°C 61% 2.2 mph NE3.5 kmh NE 2.5 mph4.0 kmh 30.44 in1030.8 mb 0.00 in0.0 mm 0.00 in/hr0.0 mm/hr 0.00 in0.0 mm
11:09 PM 51.6°F10.9°C 38.6°F3.7°C 61% 2.5 mph NE4.0 kmh NE 2.5 mph4.0 kmh 30.44 in1030.8 mb 0.00 in0.0 mm 0.00 in/hr0.0 mm/hr 0.00 in0.0 mm
11:15 PM 51.6°F10.9°C 39.0°F3.9°C 62% 1.3 mph NNE2.1 kmh NNE 2.5 mph4.0 kmh 30.44 in1030.8 mb 0.00 in0.0 mm 0.00 in/hr0.0 mm/hr 0.00 in0.0 mm
11:20 PM 51.6°F10.9°C 39.0°F3.9°C 62% Calm Calm 1.3 mph2.1 kmh 30.44 in1030.8 mb 0.00 in0.0 mm 0.00 in/hr0.0 mm/hr 0.00 in0.0 mm
11:25 PM 51.4°F10.8°C 38.9°F3.8°C 62% 1.6 mph NNE2.6 kmh NNE 2.2 mph3.5 kmh 30.44 in1030.8 mb 0.00 in0.0 mm 0.00 in/hr0.0 mm/hr 0.00 in0.0 mm
11:29 PM 51.4°F10.8°C 38.9°F3.8°C 62% 1.6 mph NE2.6 kmh NE 2.0 mph3.2 kmh 30.44 in1030.8 mb 0.00 in0.0 mm 0.00 in/hr0.0 mm/hr 0.00 in0.0 mm
11:34 PM 51.4°F10.8°C 38.9°F3.8°C 62% Calm Calm 2.0 mph3.2 kmh 30.44 in1030.8 mb 0.00 in0.0 mm 0.00 in/hr0.0 mm/hr 0.00 in0.0 mm
11:39 PM 51.4°F10.8°C 38.9°F3.8°C 62% Calm Calm -- 30.44 in1030.8 mb 0.00 in0.0 mm 0.00 in/hr0.0 mm/hr 0.00 in0.0 mm
11:44 PM 51.4°F10.8°C 38.9°F3.8°C 62% Calm Calm -- 30.44 in1030.8 mb 0.00 in0.0 mm 0.00 in/hr0.0 mm/hr 0.00 in0.0 mm
11:49 PM 51.3°F10.7°C 38.7°F3.7°C 62% Calm Calm -- 30.44 in1030.8 mb 0.00 in0.0 mm 0.00 in/hr0.0 mm/hr 0.00 in0.0 mm
11:54 PM 51.1°F10.6°C 38.5°F3.6°C 62% Calm Calm -- 30.44 in1030.8 mb 0.00 in0.0 mm 0.00 in/hr0.0 mm/hr 0.00 in0.0 mm
11:59 PM 51.1°F10.6°C 38.5°F3.6°C 62% Calm Calm -- 30.44 in1030.8 mb 0.00 in0.0 mm 0.00 in/hr0.0 mm/hr 0.00 in0.0 mm